Time;durP1;ratioP1;P1;durP2;ratioP2;P2;SDS_P1;SDS_P2;PMS_P1;PMS_P2;Temp;Humidity;BMP_temperature;BMP_pressure;BME280_temperature;BME280_humidity;BME280_pressure;Samples;Min_cycle;Max_cycle;Signal;HPM_P1;HPM_P2
2024/03/09 00:01:00;;;;;;;0.00;0.00;;;;;;;6.45;87.20;98397.41;6221576;23;20010;-78
2024/03/09 00:03:26;;;;;;;0.00;0.00;;;;;;;6.56;87.33;98397.31;6221029;23;20024;-76
2024/03/09 00:05:52;;;;;;;0.00;0.00;;;;;;;6.61;86.16;98383.66;6248373;23;20008;-74
2024/03/09 00:08:18;;;;;;;0.00;0.00;;;;;;;6.54;86.87;98375.03;6197909;23;20008;-76
2024/03/09 00:10:44;;;;;;;0.00;0.00;;;;;;;6.69;86.96;98396.59;6222701;23;20010;-76
2024/03/09 00:13:10;;;;;;;0.00;0.00;;;;;;;6.67;86.48;98385.19;6224977;23;20008;-75
2024/03/09 00:15:36;;;;;;;0.00;0.00;;;;;;;6.72;86.29;98390.59;6196229;23;20036;-75
2024/03/09 00:18:04;;;;;;;0.00;0.00;;;;;;;6.69;86.31;98385.75;6222481;23;20105;-74
2024/03/09 00:20:34;;;;;;;0.00;0.00;;;;;;;6.71;86.07;98380.81;6248201;23;20004;-74
2024/03/09 00:23:01;;;;;;;0.00;0.00;;;;;;;6.67;86.84;98366.19;6223189;23;20420;-75
2024/03/09 00:25:31;;;;;;;0.00;0.00;;;;;;;6.74;86.62;98363.94;6220880;23;20043;-74
2024/03/09 00:27:57;;;;;;;0.00;0.00;;;;;;;6.77;86.21;98370.69;6195534;23;20011;-73
2024/03/09 00:30:29;;;;;;;0.00;0.00;;;;;;;6.80;85.91;98357.34;6243267;23;20014;-74
2024/03/09 00:32:58;;;;;;;0.00;0.00;;;;;;;6.82;85.94;98352.44;6220724;23;20354;-74
2024/03/09 00:35:25;;;;;;;0.00;0.00;;;;;;;6.89;86.82;98353.97;6198647;23;20027;-74
2024/03/09 00:37:52;;;;;;;0.00;0.00;;;;;;;6.89;86.49;98354.78;6221545;23;20060;-76
2024/03/09 00:40:17;;;;;;;0.00;0.00;;;;;;;6.76;86.52;98329.16;6250288;23;20052;-75
2024/03/09 00:42:45;;;;;;;0.00;0.00;;;;;;;6.97;86.62;98350.59;6222191;23;20008;-74
2024/03/09 00:45:13;;;;;;;0.00;0.00;;;;;;;6.95;86.80;98345.47;6249635;23;20446;-74
2024/03/09 00:47:40;;;;;;;0.00;0.00;;;;;;;6.96;86.72;98328.03;6228327;23;19996;-75
2024/03/09 00:50:08;;;;;;;0.00;0.00;;;;;;;6.98;86.71;98330.50;6226404;23;19996;-75
2024/03/09 00:52:34;;;;;;;0.00;0.00;;;;;;;6.98;86.58;98325.84;6252043;22;20020;-75
2024/03/09 00:55:00;;;;;;;0.00;0.00;;;;;;;6.99;87.22;98332.09;6222262;23;20437;-77
2024/03/09 00:57:25;;;;;;;0.00;0.00;;;;;;;7.00;86.70;98328.28;6219979;23;20008;-75
2024/03/09 00:59:54;;;;;;;0.00;0.00;;;;;;;6.95;86.52;98318.28;6196690;23;20004;-75
2024/03/09 01:02:20;;;;;;;0.00;0.00;;;;;;;7.07;86.19;98338.78;6247773;23;20008;-75
2024/03/09 01:04:46;;;;;;;0.00;0.00;;;;;;;7.14;86.61;98340.03;6222883;23;20423;-73
2024/03/09 01:07:15;;;;;;;0.00;0.00;;;;;;;7.15;86.48;98329.97;6220191;23;20018;-74
2024/03/09 01:09:43;;;;;;;0.00;0.00;;;;;;;7.07;86.86;98317.84;6223064;23;20008;-74
2024/03/09 01:12:09;;;;;;;0.00;0.00;;;;;;;6.95;86.14;98309.31;6218940;23;20007;-75
2024/03/09 01:14:36;;;;;;;0.00;0.00;;;;;;;7.05;86.14;98313.81;6195404;23;20012;-74
2024/03/09 01:17:01;;;;;;;0.00;0.00;;;;;;;7.02;85.83;98301.59;6248324;23;20004;-75
2024/03/09 01:19:27;;;;;;;0.00;0.00;;;;;;;6.98;86.78;98292.44;6249764;23;20016;-75
2024/03/09 01:21:59;;;;;;;0.00;0.00;;;;;;;6.81;86.80;98276.66;6219648;23;20066;-74
2024/03/09 01:24:25;;;;;;;0.00;0.00;;;;;;;6.64;87.45;98260.84;6220810;23;20443;-74
2024/03/09 01:26:50;;;;;;;0.10;0.10;;;;;;;6.63;87.30;98286.41;6247053;23;20023;-74
2024/03/09 01:29:16;;;;;;;0.00;0.00;;;;;;;6.50;87.58;98281.69;6220455;23;20012;-73
2024/03/09 01:31:41;;;;;;;0.00;0.00;;;;;;;6.37;87.98;98273.16;6194498;23;20084;-74
2024/03/09 01:34:09;;;;;;;0.00;0.00;;;;;;;6.31;87.28;98268.91;6221799;23;20008;-75
2024/03/09 01:36:36;;;;;;;0.00;0.00;;;;;;;6.27;88.13;98252.38;6221021;23;20035;-75
2024/03/09 01:39:02;;;;;;;0.00;0.00;;;;;;;6.24;88.77;98254.88;6223266;23;20083;-73
2024/03/09 01:41:28;;;;;;;0.00;0.00;;;;;;;6.26;87.80;98252.66;6220570;23;19998;-74
2024/03/09 01:43:55;;;;;;;0.10;0.10;;;;;;;6.15;88.56;98233.00;6247612;23;20018;-74
2024/03/09 01:46:21;;;;;;;0.03;0.03;;;;;;;6.20;88.84;98245.69;6222985;23;20023;-74
2024/03/09 01:48:48;;;;;;;0.03;0.03;;;;;;;6.09;88.77;98218.69;6198100;23;20621;-75
2024/03/09 01:51:15;;;;;;;0.05;0.05;;;;;;;6.15;88.13;98227.56;6221165;23;20032;-75
2024/03/09 01:53:43;;;;;;;0.00;0.00;;;;;;;6.14;88.42;98231.38;6249624;22;20016;-75
2024/03/09 01:56:12;;;;;;;0.00;0.00;;;;;;;6.25;88.54;98230.16;6224116;23;20095;-74
2024/03/09 01:58:41;;;;;;;0.00;0.00;;;;;;;6.25;88.62;98210.31;6247623;22;20011;-74
2024/03/09 02:01:21;;;;;;;0.00;0.00;;;;;;;6.27;88.89;98202.72;6221192;23;19992;-72
2024/03/09 02:03:52;;;;;;;0.00;0.00;;;;;;;6.31;88.59;98203.75;6246193;23;20028;-74
2024/03/09 02:06:23;;;;;;;0.00;0.00;;;;;;;6.34;88.32;98208.59;6196927;23;20012;-73
2024/03/09 02:08:51;;;;;;;0.00;0.00;;;;;;;6.34;88.91;98211.31;6218524;23;20031;-74
2024/03/09 02:11:16;;;;;;;0.00;0.00;;;;;;;6.30;88.15;98218.41;6219823;23;20008;-76
2024/03/09 02:13:43;;;;;;;0.00;0.00;;;;;;;6.27;88.11;98211.66;6194794;23;20365;-74
2024/03/09 02:16:12;;;;;;;0.00;0.00;;;;;;;6.24;88.76;98214.97;6218964;23;20008;-74
2024/03/09 02:18:40;;;;;;;0.00;0.00;;;;;;;6.15;88.73;98214.00;6220813;23;20035;-74
2024/03/09 02:21:08;;;;;;;0.00;0.00;;;;;;;6.14;89.50;98225.16;6198674;23;20074;-74
2024/03/09 02:23:35;;;;;;;0.00;0.00;;;;;;;6.08;90.14;98219.78;6245199;23;20008;-73
2024/03/09 02:26:01;;;;;;;0.00;0.00;;;;;;;6.04;89.80;98221.44;6222850;23;20411;-74
2024/03/09 02:28:30;;;;;;;0.08;0.08;;;;;;;5.95;90.86;98217.72;6196173;23;20012;-76
2024/03/09 02:30:58;;;;;;;0.00;0.00;;;;;;;5.92;90.23;98213.69;6196065;23;20067;-75
2024/03/09 02:33:25;;;;;;;0.00;0.00;;;;;;;5.93;90.60;98209.09;6195359;23;20768;-75
2024/03/09 02:35:52;;;;;;;0.00;0.00;;;;;;;5.93;90.58;98198.25;6247722;23;20011;-74
2024/03/09 02:38:19;;;;;;;0.00;0.00;;;;;;;6.00;90.59;98198.72;6223346;23;19991;-74
2024/03/09 02:40:45;;;;;;;0.00;0.00;;;;;;;6.00;90.32;98185.16;6221922;23;20043;-75
2024/03/09 02:43:12;;;;;;;0.00;0.00;;;;;;;5.96;90.72;98165.09;6222167;23;20000;-75
2024/03/09 02:45:39;;;;;;;0.00;0.00;;;;;;;6.18;89.83;98186.28;6246857;23;20008;-75
2024/03/09 02:48:04;;;;;;;0.00;0.00;;;;;;;6.19;89.64;98187.91;6223460;23;20014;-73
2024/03/09 02:50:31;;;;;;;0.00;0.00;;;;;;;6.20;90.31;98191.41;6219744;23;20004;-75
2024/03/09 02:52:57;;;;;;;0.00;0.00;;;;;;;6.14;89.48;98177.09;6238882;22;20050;-73
2024/03/09 02:55:23;;;;;;;0.00;0.00;;;;;;;6.20;90.50;98177.84;6196415;23;20089;-75
2024/03/09 02:57:49;;;;;;;0.00;0.00;;;;;;;6.17;89.76;98173.00;6198408;23;20008;-74
2024/03/09 03:00:15;;;;;;;0.00;0.00;;;;;;;6.17;89.88;98178.44;6219879;23;20026;-76
2024/03/09 03:05:25;;;;;;;0.00;0.00;;;;;;;6.15;90.09;98164.31;6225091;23;20034;-74
2024/03/09 03:07:51;;;;;;;0.00;0.00;;;;;;;6.16;90.44;98163.22;6219321;23;20012;-75
2024/03/09 03:10:18;;;;;;;0.00;0.00;;;;;;;6.14;90.22;98170.88;6195102;23;20087;-74
2024/03/09 03:12:46;;;;;;;0.00;0.00;;;;;;;6.15;90.64;98167.03;6221208;23;20000;-75
2024/03/09 03:15:13;;;;;;;0.00;0.00;;;;;;;6.10;90.24;98167.91;6220294;23;20042;-74
2024/03/09 03:17:38;;;;;;;0.00;0.00;;;;;;;6.10;90.53;98166.03;6222565;23;20008;-73
2024/03/09 03:20:06;;;;;;;0.00;0.00;;;;;;;6.16;91.04;98168.66;6219983;23;20083;-75
2024/03/09 03:22:32;;;;;;;0.00;0.00;;;;;;;6.16;90.60;98165.94;6196092;23;20020;-74
2024/03/09 03:24:58;;;;;;;0.00;0.00;;;;;;;6.17;90.53;98159.44;6222859;23;20091;-75
2024/03/09 03:27:23;;;;;;;0.00;0.00;;;;;;;6.19;90.53;98151.78;6170493;23;20008;-73
2024/03/09 03:29:51;;;;;;;0.00;0.00;;;;;;;6.28;90.20;98167.13;6196861;23;20079;-73
2024/03/09 03:32:16;;;;;;;0.00;0.00;;;;;;;6.30;90.34;98164.13;6196286;23;20008;-74
2024/03/09 03:34:43;;;;;;;0.00;0.00;;;;;;;6.32;90.19;98164.63;6247959;23;20004;-73
2024/03/09 03:37:09;;;;;;;0.00;0.00;;;;;;;6.31;90.51;98154.91;6195303;23;19997;-74
2024/03/09 03:39:34;;;;;;;0.00;0.00;;;;;;;6.32;90.26;98155.69;6197783;23;20424;-74
2024/03/09 03:42:00;;;;;;;0.00;0.00;;;;;;;6.41;90.65;98152.03;6222798;23;20015;-74
2024/03/09 03:44:29;;;;;;;0.00;0.00;;;;;;;6.52;89.94;98149.16;6245340;23;20010;-74
2024/03/09 03:46:55;;;;;;;0.03;0.03;;;;;;;6.53;90.04;98150.78;6224964;23;20023;-74
2024/03/09 03:49:22;;;;;;;0.00;0.00;;;;;;;6.53;89.81;98153.50;6222478;23;20012;-75
2024/03/09 03:51:48;;;;;;;0.00;0.00;;;;;;;6.44;89.71;98140.56;6225425;23;20038;-74
2024/03/09 03:54:13;;;;;;;0.05;0.05;;;;;;;6.44;89.98;98137.88;6203595;23;20036;-75
2024/03/09 03:56:39;;;;;;;0.10;0.10;;;;;;;6.54;90.23;98149.66;6250356;23;20027;-74
2024/03/09 03:59:04;;;;;;;0.00;0.00;;;;;;;6.51;89.72;98142.09;6221584;23;20008;-74
2024/03/09 04:01:31;;;;;;;0.00;0.00;;;;;;;6.58;90.33;98139.81;6220132;23;20023;-75
2024/03/09 04:03:56;;;;;;;0.00;0.00;;;;;;;6.60;89.74;98135.72;6197955;23;20012;-76
2024/03/09 04:06:21;;;;;;;0.00;0.00;;;;;;;6.63;90.17;98134.31;6220530;23;20014;-75
2024/03/09 04:08:47;;;;;;;0.00;0.00;;;;;;;6.70;90.47;98131.22;6196069;23;20008;-75
2024/03/09 04:11:12;;;;;;;0.00;0.00;;;;;;;6.67;90.72;98124.47;6222068;23;20039;-74
2024/03/09 04:13:38;;;;;;;0.00;0.00;;;;;;;6.70;90.62;98123.91;6196901;23;20035;-74
2024/03/09 04:16:04;;;;;;;0.00;0.00;;;;;;;6.78;90.73;98128.63;6222752;23;20011;-74
2024/03/09 04:18:30;;;;;;;0.00;0.00;;;;;;;6.82;90.61;98121.50;6170423;23;20008;-75
2024/03/09 04:20:56;;;;;;;0.00;0.00;;;;;;;6.75;90.89;98115.66;6222687;23;20423;-74
2024/03/09 04:23:22;;;;;;;0.00;0.00;;;;;;;6.62;91.55;98094.69;6247153;23;20442;-76
2024/03/09 04:25:58;;;;;;;0.00;0.00;;;;;;;6.73;91.22;98119.75;6250115;23;20028;-75
2024/03/09 04:28:27;;;;;;;0.10;0.10;;;;;;;6.70;91.73;98118.47;6221193;23;20043;-74
2024/03/09 04:30:53;;;;;;;0.00;0.00;;;;;;;6.71;91.35;98120.06;6221993;23;20008;-75
2024/03/09 04:33:40;;;;;;;0.00;0.00;;;;;;;6.70;92.56;98115.75;6219954;23;20335;-75
2024/03/09 04:36:06;;;;;;;0.00;0.00;;;;;;;6.76;92.25;98105.56;6222011;23;19988;-75
2024/03/09 04:38:35;;;;;;;0.00;0.00;;;;;;;6.81;91.75;98109.03;6195922;23;20008;-73
2024/03/09 04:41:00;;;;;;;0.00;0.00;;;;;;;6.77;91.79;98101.75;6246830;23;20018;-75
2024/03/09 04:43:26;;;;;;;0.00;0.00;;;;;;;6.71;91.92;98094.81;6196686;23;20086;-76
2024/03/09 04:46:03;;;;;;;0.00;0.00;;;;;;;6.65;92.30;98085.94;6221651;23;20012;-76
2024/03/09 04:48:30;;;;;;;0.00;0.00;;;;;;;6.30;92.85;98039.28;6177874;23;20012;-76
2024/03/09 04:51:19;;;;;;;0.00;0.00;;;;;;;6.49;93.06;98069.09;6220663;23;20129;-75
2024/03/09 04:53:45;;;;;;;0.00;0.00;;;;;;;6.74;93.51;98094.22;6196303;23;20081;-76
2024/03/09 04:56:11;;;;;;;0.00;0.00;;;;;;;6.78;93.42;98098.75;6221627;23;20016;-76
2024/03/09 04:58:36;;;;;;;0.00;0.00;;;;;;;6.79;93.24;98089.50;6220002;23;20004;-75
2024/03/09 05:01:17;;;;;;;0.00;0.00;;;;;;;6.70;93.63;98075.00;6245397;23;19999;-75
2024/03/09 05:03:45;;;;;;;0.00;0.00;;;;;;;6.66;93.48;98052.25;6219989;23;20000;-74
2024/03/09 05:06:57;;;;;;;0.00;0.00;;;;;;;6.80;93.86;98069.41;6220409;23;20087;-75
2024/03/09 05:09:32;;;;;;;0.00;0.00;;;;;;;6.58;94.27;98017.63;6249085;23;20778;-74
2024/03/09 05:11:58;;;;;;;0.00;0.00;;;;;;;7.00;93.84;98078.28;6221140;23;20787;-75
2024/03/09 05:14:41;;;;;;;0.00;0.00;;;;;;;6.75;93.41;98034.16;6222566;23;20008;-74
2024/03/09 05:17:18;;;;;;;0.00;0.00;;;;;;;7.01;93.69;98069.03;6248883;23;20000;-75
2024/03/09 05:19:47;;;;;;;0.00;0.00;;;;;;;6.76;93.93;98041.22;6226724;23;20004;-74
2024/03/09 05:26:24;;;;;;;;;;;;;;;;;;;;;
2024/03/09 05:32:59;;;;;;;;;;;;;;;;;;;;;
2024/03/09 05:36:00;;;;;;;;;;;;;;;;;;;;;
2024/03/09 05:41:50;;;;;;;0.00;0.00;;;;;;;6.43;95.87;98007.84;6107738;23;20001;-79
2024/03/09 05:44:16;;;;;;;0.00;0.00;;;;;;;6.69;96.76;98038.06;6161627;23;20145;-78
2024/03/09 05:47:05;;;;;;;;;;;;;;;;;;;;;
2024/03/09 05:52:54;;;;;;;0.10;0.10;;;;;;;6.69;96.69;98032.66;6128917;23;20014;-77
2024/03/09 05:55:20;;;;;;;0.00;0.00;;;;;;;6.79;96.92;98048.75;6136912;23;20080;-79
2024/03/09 05:57:49;;;;;;;0.00;0.00;;;;;;;6.77;96.94;98034.66;6160095;23;20021;-77
2024/03/09 06:00:19;;;;;;;0.00;0.00;;;;;;;6.80;96.79;98044.94;6159807;23;20018;-78
2024/03/09 06:02:47;;;;;;;0.00;0.00;;;;;;;6.84;97.35;98047.06;6158178;23;20405;-78
2024/03/09 06:05:14;;;;;;;0.00;0.00;;;;;;;6.84;97.34;98041.63;6219357;23;20099;-77
2024/03/09 06:07:42;;;;;;;0.00;0.00;;;;;;;6.93;96.64;98045.25;6222385;23;19999;-78
2024/03/09 06:10:14;;;;;;;0.00;0.00;;;;;;;6.98;97.26;98047.88;6221563;23;20700;-78
2024/03/09 06:12:49;;;;;;;0.00;0.00;;;;;;;7.07;97.22;98048.00;6225242;23;20034;-78
2024/03/09 06:15:20;;;;;;;0.00;0.00;;;;;;;7.05;97.21;98044.75;6198858;23;20018;-79
2024/03/09 06:17:47;;;;;;;0.00;0.00;;;;;;;7.10;97.91;98061.78;6225559;23;20008;-78
2024/03/09 06:20:17;;;;;;;0.00;0.00;;;;;;;7.08;98.19;98069.44;6223873;23;20016;-77
2024/03/09 06:22:45;;;;;;;0.00;0.00;;;;;;;7.14;98.75;98068.22;6249967;23;20012;-77
2024/03/09 06:25:12;;;;;;;0.00;0.00;;;;;;;7.11;98.49;98065.28;6248710;23;20075;-77
2024/03/09 06:27:41;;;;;;;0.00;0.00;;;;;;;7.09;98.52;98062.06;6199956;23;20061;-76
2024/03/09 06:30:08;;;;;;;0.00;0.00;;;;;;;7.06;98.63;98071.63;6222324;23;20126;-76
2024/03/09 06:32:35;;;;;;;0.00;0.00;;;;;;;7.01;98.94;98069.03;6223346;22;20027;-75
2024/03/09 06:35:02;;;;;;;0.00;0.00;;;;;;;7.08;99.04;98068.63;6251171;22;20028;-76
2024/03/09 06:37:28;;;;;;;0.00;0.00;;;;;;;7.10;99.28;98075.38;6248157;22;20089;-76
2024/03/09 06:39:53;;;;;;;0.00;0.00;;;;;;;7.07;99.49;98069.75;6249855;22;20388;-77
2024/03/09 06:42:21;;;;;;;0.00;0.00;;;;;;;7.05;99.68;98070.00;6221993;23;20024;-76
2024/03/09 06:44:48;;;;;;;0.00;0.00;;;;;;;7.15;99.41;98086.16;6175002;23;20234;-76
2024/03/09 06:47:16;;;;;;;0.00;0.00;;;;;;;7.14;99.83;98078.28;6223607;23;20008;-76
2024/03/09 06:49:42;;;;;;;0.00;0.00;;;;;;;7.20;99.87;98081.72;6252002;23;20000;-76
2024/03/09 06:52:07;;;;;;;0.00;0.00;;;;;;;7.19;99.28;98069.25;6174715;23;19992;-80
2024/03/09 06:54:34;;;;;;;0.00;0.00;;;;;;;7.28;99.97;98073.66;6218627;23;20033;-77
2024/03/09 06:57:00;;;;;;;0.00;0.00;;;;;;;7.29;99.47;98075.28;6195508;23;20080;-74
2024/03/09 06:59:25;;;;;;;0.00;0.00;;;;;;;7.29;99.74;98079.91;6192860;23;19992;-76
2024/03/09 07:01:56;;;;;;;0.00;0.00;;;;;;;7.28;100.00;98078.28;6169314;23;20304;-74
2024/03/09 07:04:22;;;;;;;0.00;0.00;;;;;;;7.31;99.56;98075.78;6194645;23;20015;-78
2024/03/09 07:06:47;;;;;;;0.00;0.00;;;;;;;7.30;99.82;98070.63;6217075;23;20009;-77
2024/03/09 07:09:13;;;;;;;0.00;0.00;;;;;;;7.32;100.00;98071.16;6219324;23;19999;-76
2024/03/09 07:11:38;;;;;;;0.00;0.00;;;;;;;7.32;100.00;98073.88;6190655;23;20354;-76
2024/03/09 07:14:04;;;;;;;0.00;0.00;;;;;;;7.41;100.00;98084.84;6192003;23;20089;-75
2024/03/09 07:16:30;;;;;;;0.10;0.10;;;;;;;7.49;100.00;98084.13;6165262;23;20008;-76
2024/03/09 07:18:56;;;;;;;0.00;0.00;;;;;;;7.56;100.00;98089.97;6170404;23;20009;-76
2024/03/09 07:21:25;;;;;;;0.00;0.00;;;;;;;7.65;100.00;98104.47;6169913;23;19988;-77
2024/03/09 07:23:50;;;;;;;0.00;0.00;;;;;;;7.68;100.00;98089.44;6194144;23;20107;-77
2024/03/09 07:26:16;;;;;;;0.00;0.00;;;;;;;7.73;100.00;98102.97;6171817;23;20005;-76
2024/03/09 07:28:43;;;;;;;0.00;0.00;;;;;;;7.85;100.00;98102.44;6167265;23;20316;-76
2024/03/09 07:31:11;;;;;;;0.00;0.00;;;;;;;7.99;100.00;98096.97;6193995;23;20442;-78
2024/03/09 07:33:43;;;;;;;0.00;0.00;;;;;;;8.08;100.00;98105.22;6147124;23;20011;-79
2024/03/09 07:36:10;;;;;;;0.00;0.00;;;;;;;8.12;100.00;98104.31;6196021;23;19992;-76
2024/03/09 07:38:36;;;;;;;0.00;0.00;;;;;;;8.08;100.00;98089.69;6170233;23;20013;-74
2024/03/09 07:41:02;;;;;;;0.00;0.00;;;;;;;8.26;100.00;98106.97;6218985;23;20014;-75
2024/03/09 07:43:27;;;;;;;0.00;0.00;;;;;;;8.32;100.00;98104.94;6167276;23;20001;-74
2024/03/09 07:45:53;;;;;;;0.00;0.00;;;;;;;8.37;100.00;98097.47;6217467;23;20009;-74
2024/03/09 07:48:19;;;;;;;0.00;0.00;;;;;;;8.43;100.00;98098.16;6166456;23;20088;-75
2024/03/09 07:50:48;;;;;;;0.00;0.00;;;;;;;8.52;99.89;98104.50;6191659;23;20012;-75
2024/03/09 07:53:15;;;;;;;0.10;0.10;;;;;;;8.53;99.90;98087.03;6200274;23;20074;-73
2024/03/09 07:55:41;;;;;;;0.00;0.00;;;;;;;8.71;100.00;98100.78;6220917;23;20020;-73
2024/03/09 07:58:06;;;;;;;0.00;0.00;;;;;;;8.77;99.28;98080.47;6247950;23;20019;-76
2024/03/09 08:00:35;;;;;;;0.00;0.00;;;;;;;9.01;98.51;98098.38;6223199;23;20011;-74
2024/03/09 08:03:05;;;;;;;0.00;0.00;;;;;;;8.90;97.81;98081.50;6222401;23;19990;-75
2024/03/09 08:05:31;;;;;;;0.00;0.00;;;;;;;9.00;97.48;98096.78;6248732;23;20008;-75
2024/03/09 08:07:57;;;;;;;0.00;0.00;;;;;;;9.01;97.36;98103.84;6197038;23;20091;-74
2024/03/09 08:10:24;;;;;;;0.00;0.00;;;;;;;9.06;96.99;98093.59;6195246;23;20007;-75
2024/03/09 08:12:52;;;;;;;0.00;0.00;;;;;;;9.07;96.44;98091.72;6222652;23;19992;-77
2024/03/09 08:15:18;;;;;;;0.00;0.00;;;;;;;9.22;96.54;98094.00;6197289;23;20042;-74
2024/03/09 08:17:48;;;;;;;0.00;0.00;;;;;;;9.32;96.33;98094.88;6223489;23;20643;-73
2024/03/09 08:20:18;;;;;;;0.00;0.00;;;;;;;9.42;95.27;98087.19;6195573;23;20097;-74
2024/03/09 08:22:45;;;;;;;0.00;0.00;;;;;;;9.67;94.78;98086.81;6223556;23;20058;-73
2024/03/09 08:25:15;;;;;;;0.00;0.00;;;;;;;9.78;93.58;98090.81;6221066;23;19996;-76
2024/03/09 08:27:41;;;;;;;0.00;0.00;;;;;;;10.01;92.37;98090.72;6202569;23;20019;-75
2024/03/09 08:30:18;;;;;;;0.00;0.00;;;;;;;10.04;91.55;98084.63;6220797;23;20010;-73
2024/03/09 08:32:53;;;;;;;0.00;0.00;;;;;;;10.01;91.03;98085.25;6204551;23;20339;-79
2024/03/09 08:35:20;;;;;;;0.00;0.00;;;;;;;9.87;90.54;98091.66;6227929;23;20091;-79
2024/03/09 08:37:47;;;;;;;0.00;0.00;;;;;;;9.72;90.27;98095.63;6204981;23;20012;-78
2024/03/09 08:40:17;;;;;;;0.10;0.10;;;;;;;9.54;90.80;98083.88;6205985;23;20067;-79
2024/03/09 08:42:51;;;;;;;0.00;0.00;;;;;;;9.35;91.22;98064.22;6232153;23;20279;-78
2024/03/09 08:45:20;;;;;;;0.03;0.03;;;;;;;9.40;91.63;98066.81;6226060;23;20012;-79
2024/03/09 08:47:53;;;;;;;0.00;0.00;;;;;;;9.55;91.38;98074.56;6226511;23;20015;-79
2024/03/09 08:50:25;;;;;;;0.00;0.00;;;;;;;9.70;91.15;98086.16;6228477;23;19992;-79
2024/03/09 08:52:50;;;;;;;0.00;0.00;;;;;;;9.82;90.70;98077.38;6199865;22;20011;-78
2024/03/09 08:55:19;;;;;;;0.00;0.00;;;;;;;10.06;89.70;98087.81;6228533;23;20020;-78
2024/03/09 08:57:56;;;;;;;0.00;0.00;;;;;;;10.08;88.31;98067.28;6226118;23;20039;-77
2024/03/09 09:00:25;;;;;;;0.00;0.00;;;;;;;10.39;87.30;98092.84;6204184;23;20005;-77
2024/03/09 09:02:51;;;;;;;0.00;0.00;;;;;;;10.59;86.92;98092.19;6224391;23;20072;-79
2024/03/09 09:05:21;;;;;;;0.00;0.00;;;;;;;10.78;85.64;98071.94;6197573;23;20008;-78
2024/03/09 09:07:46;;;;;;;0.00;0.00;;;;;;;11.14;82.90;98084.34;6198232;23;20074;-77
2024/03/09 09:10:22;;;;;;;0.00;0.00;;;;;;;11.12;82.52;98087.41;6222116;23;20053;-78
2024/03/09 09:12:49;;;;;;;0.00;0.00;;;;;;;10.94;82.63;98097.63;6225527;23;20004;-79
2024/03/09 09:15:19;;;;;;;0.00;0.00;;;;;;;10.78;82.62;98088.31;6251683;23;20015;-81
2024/03/09 09:17:45;;;;;;;0.00;0.00;;;;;;;10.56;83.18;98081.13;6252311;22;20012;-79
2024/03/09 09:20:12;;;;;;;0.00;0.00;;;;;;;10.58;83.28;98079.66;6200560;23;20058;-80
2024/03/09 09:22:49;;;;;;;0.00;0.00;;;;;;;10.83;83.27;98088.13;6200340;23;20020;-79
2024/03/09 09:25:16;;;;;;;0.00;0.00;;;;;;;11.42;81.91;98070.25;6225068;23;20012;-78
2024/03/09 09:27:44;;;;;;;0.00;0.00;;;;;;;11.94;79.16;98075.47;6230953;23;20027;-78
2024/03/09 09:30:10;;;;;;;0.00;0.00;;;;;;;12.30;77.19;98076.81;6259211;23;19997;-79
2024/03/09 09:32:36;;;;;;;0.00;0.00;;;;;;;12.58;75.50;98081.75;6203865;23;20007;-77
2024/03/09 09:35:20;;;;;;;0.00;0.00;;;;;;;12.79;74.51;98064.44;6202729;23;20008;-77
2024/03/09 09:37:46;;;;;;;0.00;0.00;;;;;;;12.91;74.16;98080.97;6208139;23;19992;-79
2024/03/09 09:40:13;;;;;;;0.00;0.00;;;;;;;13.04;75.21;98077.09;6227121;23;20050;-78
2024/03/09 09:42:39;;;;;;;0.00;0.00;;;;;;;13.75;75.02;98072.34;6226309;23;19996;-79
2024/03/09 09:45:05;;;;;;;0.00;0.00;;;;;;;14.17;71.78;98075.97;6253554;23;20028;-78
2024/03/09 09:47:33;;;;;;;0.00;0.00;;;;;;;13.79;70.29;98070.53;6224544;23;20411;-78
2024/03/09 09:49:59;;;;;;;0.00;0.00;;;;;;;13.39;71.07;98084.97;6227167;23;20059;-79
2024/03/09 09:52:24;;;;;;;0.00;0.00;;;;;;;13.02;72.20;98062.91;6256086;22;20001;-77
2024/03/09 09:55:00;;;;;;;0.00;0.00;;;;;;;12.85;72.41;98074.88;6229898;22;20020;-78
2024/03/09 09:57:26;;;;;;;0.00;0.00;;;;;;;12.49;72.35;98078.28;6229149;23;20031;-78
2024/03/09 09:59:51;;;;;;;0.00;0.00;;;;;;;12.26;73.26;98073.16;6178792;23;20000;-78
2024/03/09 10:02:21;;;;;;;0.00;0.00;;;;;;;12.31;73.94;98067.47;6228089;23;19997;-79
2024/03/09 10:04:46;;;;;;;0.00;0.00;;;;;;;12.38;74.95;98056.78;6202617;23;20008;-79
2024/03/09 10:07:12;;;;;;;0.00;0.00;;;;;;;12.44;74.83;98057.38;6178620;23;20008;-78
2024/03/09 10:09:38;;;;;;;0.00;0.00;;;;;;;12.83;73.95;98046.19;6228908;23;20017;-79
2024/03/09 10:12:04;;;;;;;0.00;0.00;;;;;;;13.18;72.36;98026.59;6197186;23;20005;-78
2024/03/09 10:14:41;;;;;;;0.00;0.00;;;;;;;13.67;70.73;98018.38;6174663;23;20038;-80
2024/03/09 10:17:14;;;;;;;0.08;0.08;;;;;;;14.42;68.38;98006.00;6226381;22;20009;-80
2024/03/09 10:20:36;;;;;;;;;;;;;;;;;;;;;
2024/03/09 10:23:11;;;;;;;0.00;0.00;;;;;;;15.35;62.92;98023.38;6228780;23;20011;-80
2024/03/09 10:25:37;;;;;;;0.00;0.00;;;;;;;15.57;60.89;98073.47;6219116;23;20490;-78
2024/03/09 10:28:10;;;;;;;0.00;0.00;;;;;;;15.47;61.35;98072.81;6227751;23;20060;-80
2024/03/09 10:30:37;;;;;;;0.00;0.00;;;;;;;15.43;61.11;98046.38;6223461;23;20544;-79
2024/03/09 10:33:09;;;;;;;0.00;0.00;;;;;;;15.30;60.37;98053.91;6194736;23;20015;-77
2024/03/09 10:35:59;;;;;;;0.00;0.00;;;;;;;14.63;59.97;98049.03;6195688;23;20015;-83
2024/03/09 10:38:34;;;;;;;0.00;0.00;;;;;;;13.85;60.98;98029.09;6197589;23;20024;-82
2024/03/09 10:41:23;;;;;;;0.00;0.00;;;;;;;13.54;61.89;98023.06;6169723;23;19992;-80
2024/03/09 10:44:01;;;;;;;0.00;0.00;;;;;;;13.83;62.48;98039.63;6193708;23;20020;-82
2024/03/09 10:46:42;;;;;;;0.00;0.00;;;;;;;15.31;62.00;98041.75;6194787;23;20013;-81
2024/03/09 10:49:13;;;;;;;0.00;0.00;;;;;;;16.54;55.05;98026.78;6219631;23;20009;-81
2024/03/09 10:51:58;;;;;;;0.00;0.00;;;;;;;17.71;52.03;98013.75;6197576;23;20000;-79
2024/03/09 10:54:43;;;;;;;0.00;0.00;;;;;;;18.86;50.06;98042.94;6243215;22;20499;-80
2024/03/09 10:57:20;;;;;;;0.00;0.00;;;;;;;24.30;40.90;98025.28;6251597;23;20035;-76
2024/03/09 10:59:51;;;;;;;0.00;0.00;;;;;;;28.53;30.98;98036.09;6224897;23;20004;-76
2024/03/09 11:02:23;;;;;;;0.00;0.00;;;;;;;30.73;28.95;98029.66;6227691;23;20099;-78
2024/03/09 11:04:50;;;;;;;0.00;0.00;;;;;;;31.72;25.72;98027.38;6202644;23;20020;-79
2024/03/09 11:07:22;;;;;;;0.00;0.00;;;;;;;30.14;26.85;98004.03;6204105;23;20072;-77
2024/03/09 11:09:49;;;;;;;0.00;0.00;;;;;;;27.45;28.05;98024.91;6255485;23;20003;-79
2024/03/09 11:12:19;;;;;;;0.00;0.00;;;;;;;27.58;29.23;98025.75;6206343;23;20016;-79
2024/03/09 11:14:52;;;;;;;0.00;0.00;;;;;;;30.15;26.73;98024.53;6200930;23;20335;-78
2024/03/09 11:17:23;;;;;;;0.00;0.00;;;;;;;29.76;26.04;98005.72;6229165;23;20011;-78
2024/03/09 11:19:55;;;;;;;0.00;0.00;;;;;;;27.06;28.67;98015.38;6224058;23;20430;-79
2024/03/09 11:22:48;;;;;;;0.00;0.00;;;;;;;25.89;31.01;97996.56;6225918;23;20019;-78
2024/03/09 11:25:33;;;;;;;0.00;0.00;;;;;;;24.32;32.35;97992.16;6221263;23;20019;-76
2024/03/09 11:27:58;;;;;;;0.00;0.00;;;;;;;22.09;34.85;97981.50;6223765;23;20076;-76
2024/03/09 11:30:31;;;;;;;0.00;0.00;;;;;;;21.00;36.74;98007.78;6222102;23;20016;-75
2024/03/09 11:33:09;;;;;;;0.00;0.00;;;;;;;19.27;39.82;97981.19;6225953;23;20004;-76
2024/03/09 11:35:36;;;;;;;0.00;0.00;;;;;;;18.04;43.13;97987.41;6222638;23;20043;-76
2024/03/09 11:38:16;;;;;;;0.00;0.00;;;;;;;17.25;45.10;97998.88;6224584;23;20000;-77
2024/03/09 11:40:43;;;;;;;0.00;0.00;;;;;;;16.44;46.50;97972.19;6248228;23;20004;-77
2024/03/09 11:43:14;;;;;;;0.00;0.00;;;;;;;15.95;48.37;97986.56;6197800;23;20058;-77
2024/03/09 11:45:40;;;;;;;0.00;0.00;;;;;;;15.61;49.70;97994.44;6224699;23;20094;-78
2024/03/09 11:48:08;;;;;;;0.00;0.00;;;;;;;15.53;50.63;97993.50;6222130;23;20008;-77
2024/03/09 11:50:38;;;;;;;0.00;0.00;;;;;;;15.89;50.96;97983.31;6250383;23;20004;-72
2024/03/09 11:53:03;;;;;;;0.00;0.00;;;;;;;16.58;49.73;97983.47;6218888;22;20145;-73
2024/03/09 11:55:31;;;;;;;0.00;0.00;;;;;;;17.44;47.80;97978.66;6246354;23;20012;-73
2024/03/09 11:57:57;;;;;;;0.00;0.00;;;;;;;17.61;47.05;97977.31;6243867;23;20000;-74
2024/03/09 12:00:23;;;;;;;0.00;0.00;;;;;;;17.66;46.50;97983.72;6220412;23;19997;-73
2024/03/09 12:02:49;;;;;;;0.00;0.00;;;;;;;17.58;46.63;97986.38;6216396;23;20043;-73
2024/03/09 12:05:17;;;;;;;0.00;0.00;;;;;;;17.45;47.24;97987.75;6195042;23;20012;-73
2024/03/09 12:07:46;;;;;;;0.00;0.00;;;;;;;17.78;46.98;97975.19;6244089;23;20150;-73
2024/03/09 12:10:15;;;;;;;0.00;0.00;;;;;;;18.46;45.79;97980.78;6191364;23;20387;-74